sensor_id;sensor_type;location;lat;lon;timestamp;P1;durP1;ratioP1;P2;durP2;ratioP2
21927;SDS011;11128;51.096;17.190;2023-03-12T00:01:43;13.48;;;5.95;;
21927;SDS011;11128;51.096;17.190;2023-03-12T00:06:44;11.65;;;5.57;;
21927;SDS011;11128;51.096;17.190;2023-03-12T00:11:46;10.68;;;5.40;;
21927;SDS011;11128;51.096;17.190;2023-03-12T00:16:47;11.18;;;5.13;;
21927;SDS011;11128;51.096;17.190;2023-03-12T00:21:48;11.93;;;4.80;;
21927;SDS011;11128;51.096;17.190;2023-03-12T00:26:50;10.98;;;5.72;;
21927;SDS011;11128;51.096;17.190;2023-03-12T00:31:51;10.52;;;4.72;;
21927;SDS011;11128;51.096;17.190;2023-03-12T00:36:53;9.35;;;5.35;;
21927;SDS011;11128;51.096;17.190;2023-03-12T00:41:55;11.00;;;5.75;;
21927;SDS011;11128;51.096;17.190;2023-03-12T00:46:56;10.82;;;5.07;;
21927;SDS011;11128;51.096;17.190;2023-03-12T00:51:57;11.48;;;5.32;;
21927;SDS011;11128;51.096;17.190;2023-03-12T00:56:59;11.10;;;4.80;;
21927;SDS011;11128;51.096;17.190;2023-03-12T01:02:00;11.80;;;5.00;;
21927;SDS011;11128;51.096;17.190;2023-03-12T01:07:01;10.82;;;4.88;;
21927;SDS011;11128;51.096;17.190;2023-03-12T01:12:03;7.13;;;4.78;;
21927;SDS011;11128;51.096;17.190;2023-03-12T01:17:04;7.43;;;4.32;;
21927;SDS011;11128;51.096;17.190;2023-03-12T01:22:06;9.98;;;5.32;;
21927;SDS011;11128;51.096;17.190;2023-03-12T01:27:08;10.23;;;4.95;;
21927;SDS011;11128;51.096;17.190;2023-03-12T01:32:09;10.75;;;5.15;;
21927;SDS011;11128;51.096;17.190;2023-03-12T01:37:10;8.95;;;4.43;;
21927;SDS011;11128;51.096;17.190;2023-03-12T01:42:12;9.55;;;4.07;;
21927;SDS011;11128;51.096;17.190;2023-03-12T01:47:13;9.30;;;4.03;;
21927;SDS011;11128;51.096;17.190;2023-03-12T01:52:22;6.30;;;3.55;;
21927;SDS011;11128;51.096;17.190;2023-03-12T01:57:29;6.25;;;3.50;;
21927;SDS011;11128;51.096;17.190;2023-03-12T02:02:36;5.63;;;3.60;;
21927;SDS011;11128;51.096;17.190;2023-03-12T02:07:39;5.93;;;3.85;;
21927;SDS011;11128;51.096;17.190;2023-03-12T02:12:40;4.93;;;2.97;;
21927;SDS011;11128;51.096;17.190;2023-03-12T02:17:42;6.50;;;3.30;;
21927;SDS011;11128;51.096;17.190;2023-03-12T02:22:45;7.90;;;3.22;;
21927;SDS011;11128;51.096;17.190;2023-03-12T02:27:51;7.22;;;3.47;;
21927;SDS011;11128;51.096;17.190;2023-03-12T02:32:52;5.55;;;3.15;;
21927;SDS011;11128;51.096;17.190;2023-03-12T02:37:55;6.35;;;2.78;;
21927;SDS011;11128;51.096;17.190;2023-03-12T02:42:56;9.95;;;2.80;;
21927;SDS011;11128;51.096;17.190;2023-03-12T02:47:58;5.05;;;2.78;;
21927;SDS011;11128;51.096;17.190;2023-03-12T02:52:59;5.05;;;2.50;;
21927;SDS011;11128;51.096;17.190;2023-03-12T02:58:01;4.82;;;2.55;;
21927;SDS011;11128;51.096;17.190;2023-03-12T03:03:02;3.22;;;1.75;;
21927;SDS011;11128;51.096;17.190;2023-03-12T03:08:04;4.30;;;1.85;;
21927;SDS011;11128;51.096;17.190;2023-03-12T03:13:06;4.78;;;2.13;;
21927;SDS011;11128;51.096;17.190;2023-03-12T03:18:07;5.63;;;2.40;;
21927;SDS011;11128;51.096;17.190;2023-03-12T03:23:08;6.50;;;1.92;;
21927;SDS011;11128;51.096;17.190;2023-03-12T03:28:10;4.07;;;1.77;;
21927;SDS011;11128;51.096;17.190;2023-03-12T03:33:12;5.45;;;1.65;;
21927;SDS011;11128;51.096;17.190;2023-03-12T03:38:13;4.45;;;1.55;;
21927;SDS011;11128;51.096;17.190;2023-03-12T03:43:15;1.80;;;1.70;;
21927;SDS011;11128;51.096;17.190;2023-03-12T03:48:16;3.03;;;1.50;;
21927;SDS011;11128;51.096;17.190;2023-03-12T03:53:18;2.10;;;1.80;;
21927;SDS011;11128;51.096;17.190;2023-03-12T03:58:20;5.65;;;1.70;;
21927;SDS011;11128;51.096;17.190;2023-03-12T04:03:21;2.92;;;1.73;;
21927;SDS011;11128;51.096;17.190;2023-03-12T04:08:22;2.13;;;1.70;;
21927;SDS011;11128;51.096;17.190;2023-03-12T04:13:23;2.63;;;1.85;;
21927;SDS011;11128;51.096;17.190;2023-03-12T04:18:25;5.75;;;1.75;;
21927;SDS011;11128;51.096;17.190;2023-03-12T04:23:26;5.85;;;1.63;;
21927;SDS011;11128;51.096;17.190;2023-03-12T04:28:28;6.00;;;1.75;;
21927;SDS011;11128;51.096;17.190;2023-03-12T04:33:31;6.28;;;1.60;;
21927;SDS011;11128;51.096;17.190;2023-03-12T04:38:34;4.15;;;1.90;;
21927;SDS011;11128;51.096;17.190;2023-03-12T04:43:35;1.48;;;1.33;;
21927;SDS011;11128;51.096;17.190;2023-03-12T04:48:37;3.80;;;1.90;;
21927;SDS011;11128;51.096;17.190;2023-03-12T04:53:38;7.25;;;1.33;;
21927;SDS011;11128;51.096;17.190;2023-03-12T04:58:40;2.88;;;1.30;;
21927;SDS011;11128;51.096;17.190;2023-03-12T05:03:41;4.13;;;1.50;;
21927;SDS011;11128;51.096;17.190;2023-03-12T05:08:43;1.88;;;1.50;;
21927;SDS011;11128;51.096;17.190;2023-03-12T05:13:44;1.33;;;1.20;;
21927;SDS011;11128;51.096;17.190;2023-03-12T05:18:47;3.63;;;1.40;;
21927;SDS011;11128;51.096;17.190;2023-03-12T05:23:48;5.40;;;1.67;;
21927;SDS011;11128;51.096;17.190;2023-03-12T05:28:50;1.45;;;1.10;;
21927;SDS011;11128;51.096;17.190;2023-03-12T05:33:52;3.10;;;1.30;;
21927;SDS011;11128;51.096;17.190;2023-03-12T05:38:54;3.28;;;1.10;;
21927;SDS011;11128;51.096;17.190;2023-03-12T05:43:55;3.70;;;1.48;;
21927;SDS011;11128;51.096;17.190;2023-03-12T05:48:58;4.78;;;1.17;;
21927;SDS011;11128;51.096;17.190;2023-03-12T05:54:00;1.75;;;1.40;;
21927;SDS011;11128;51.096;17.190;2023-03-12T05:59:02;1.63;;;1.23;;
21927;SDS011;11128;51.096;17.190;2023-03-12T06:04:03;3.58;;;1.35;;
21927;SDS011;11128;51.096;17.190;2023-03-12T06:09:05;2.95;;;1.80;;
21927;SDS011;11128;51.096;17.190;2023-03-12T06:14:07;2.38;;;1.30;;
21927;SDS011;11128;51.096;17.190;2023-03-12T06:19:10;3.10;;;1.40;;
21927;SDS011;11128;51.096;17.190;2023-03-12T06:24:13;3.30;;;1.60;;
21927;SDS011;11128;51.096;17.190;2023-03-12T06:29:15;3.45;;;1.30;;
21927;SDS011;11128;51.096;17.190;2023-03-12T06:34:16;2.35;;;1.40;;
21927;SDS011;11128;51.096;17.190;2023-03-12T06:39:18;1.83;;;1.05;;
21927;SDS011;11128;51.096;17.190;2023-03-12T06:44:19;5.32;;;1.13;;
21927;SDS011;11128;51.096;17.190;2023-03-12T06:49:21;2.47;;;1.10;;
21927;SDS011;11128;51.096;17.190;2023-03-12T06:54:22;3.70;;;1.08;;
21927;SDS011;11128;51.096;17.190;2023-03-12T06:59:24;4.00;;;1.33;;
21927;SDS011;11128;51.096;17.190;2023-03-12T07:04:26;4.68;;;1.30;;
21927;SDS011;11128;51.096;17.190;2023-03-12T07:09:27;3.20;;;1.50;;
21927;SDS011;11128;51.096;17.190;2023-03-12T07:14:31;4.68;;;1.65;;
21927;SDS011;11128;51.096;17.190;2023-03-12T07:19:33;3.55;;;1.60;;
21927;SDS011;11128;51.096;17.190;2023-03-12T07:24:34;3.42;;;1.38;;
21927;SDS011;11128;51.096;17.190;2023-03-12T07:29:35;3.05;;;1.38;;
21927;SDS011;11128;51.096;17.190;2023-03-12T07:34:37;3.70;;;1.92;;
21927;SDS011;11128;51.096;17.190;2023-03-12T07:39:38;3.78;;;1.77;;
21927;SDS011;11128;51.096;17.190;2023-03-12T07:44:40;4.13;;;1.67;;
21927;SDS011;11128;51.096;17.190;2023-03-12T07:49:41;5.40;;;2.42;;
21927;SDS011;11128;51.096;17.190;2023-03-12T07:54:43;6.28;;;2.40;;
21927;SDS011;11128;51.096;17.190;2023-03-12T07:59:45;4.32;;;1.65;;
21927;SDS011;11128;51.096;17.190;2023-03-12T08:04:47;3.85;;;1.90;;
21927;SDS011;11128;51.096;17.190;2023-03-12T08:09:49;4.28;;;1.70;;
21927;SDS011;11128;51.096;17.190;2023-03-12T08:14:50;2.88;;;1.50;;
21927;SDS011;11128;51.096;17.190;2023-03-12T08:19:52;2.45;;;1.48;;
21927;SDS011;11128;51.096;17.190;2023-03-12T08:24:53;4.13;;;1.60;;
21927;SDS011;11128;51.096;17.190;2023-03-12T08:29:54;4.43;;;1.75;;
21927;SDS011;11128;51.096;17.190;2023-03-12T08:34:56;3.83;;;1.60;;
21927;SDS011;11128;51.096;17.190;2023-03-12T08:39:57;3.35;;;1.77;;
21927;SDS011;11128;51.096;17.190;2023-03-12T08:44:59;4.00;;;1.95;;
21927;SDS011;11128;51.096;17.190;2023-03-12T08:50:01;2.63;;;1.65;;
21927;SDS011;11128;51.096;17.190;2023-03-12T08:55:03;5.13;;;1.73;;
21927;SDS011;11128;51.096;17.190;2023-03-12T09:00:06;3.70;;;1.88;;
21927;SDS011;11128;51.096;17.190;2023-03-12T09:05:11;3.95;;;2.05;;
21927;SDS011;11128;51.096;17.190;2023-03-12T09:10:13;5.10;;;1.70;;
21927;SDS011;11128;51.096;17.190;2023-03-12T09:15:15;2.92;;;2.00;;
21927;SDS011;11128;51.096;17.190;2023-03-12T09:20:16;3.58;;;1.85;;
21927;SDS011;11128;51.096;17.190;2023-03-12T09:25:18;4.43;;;1.65;;
21927;SDS011;11128;51.096;17.190;2023-03-12T09:30:20;2.83;;;1.90;;
21927;SDS011;11128;51.096;17.190;2023-03-12T09:35:24;3.70;;;1.50;;
21927;SDS011;11128;51.096;17.190;2023-03-12T09:40:27;4.20;;;1.63;;
21927;SDS011;11128;51.096;17.190;2023-03-12T09:45:33;3.58;;;1.48;;
21927;SDS011;11128;51.096;17.190;2023-03-12T09:50:40;3.15;;;1.42;;
21927;SDS011;11128;51.096;17.190;2023-03-12T09:55:44;5.18;;;1.65;;
21927;SDS011;11128;51.096;17.190;2023-03-12T10:00:48;5.40;;;1.63;;
21927;SDS011;11128;51.096;17.190;2023-03-12T10:06:00;4.30;;;1.50;;
21927;SDS011;11128;51.096;17.190;2023-03-12T10:11:30;2.30;;;1.40;;
21927;SDS011;11128;51.096;17.190;2023-03-12T10:27:35;3.13;;;1.30;;
21927;SDS011;11128;51.096;17.190;2023-03-12T10:32:41;6.10;;;1.42;;
21927;SDS011;11128;51.096;17.190;2023-03-12T10:37:47;2.65;;;1.35;;
21927;SDS011;11128;51.096;17.190;2023-03-12T10:42:54;3.53;;;1.25;;
21927;SDS011;11128;51.096;17.190;2023-03-12T10:47:57;3.83;;;1.58;;
21927;SDS011;11128;51.096;17.190;2023-03-12T10:53:22;5.75;;;1.63;;
21927;SDS011;11128;51.096;17.190;2023-03-12T10:58:38;3.33;;;1.52;;
21927;SDS011;11128;51.096;17.190;2023-03-12T11:03:41;3.75;;;1.77;;
21927;SDS011;11128;51.096;17.190;2023-03-12T11:08:43;4.90;;;1.50;;
21927;SDS011;11128;51.096;17.190;2023-03-12T11:14:14;7.97;;;1.60;;
21927;SDS011;11128;51.096;17.190;2023-03-12T11:19:29;4.57;;;1.65;;
21927;SDS011;11128;51.096;17.190;2023-03-12T11:24:34;2.88;;;1.48;;
21927;SDS011;11128;51.096;17.190;2023-03-12T11:29:42;6.80;;;1.70;;
21927;SDS011;11128;51.096;17.190;2023-03-12T11:34:46;6.57;;;1.80;;
21927;SDS011;11128;51.096;17.190;2023-03-12T11:50:46;6.78;;;2.00;;
21927;SDS011;11128;51.096;17.190;2023-03-12T12:17:15;6.57;;;1.88;;
21927;SDS011;11128;51.096;17.190;2023-03-12T12:27:35;3.53;;;2.03;;
21927;SDS011;11128;51.096;17.190;2023-03-12T12:39:04;6.72;;;1.90;;
21927;SDS011;11128;51.096;17.190;2023-03-12T12:44:20;5.00;;;1.60;;
21927;SDS011;11128;51.096;17.190;2023-03-12T12:55:06;3.80;;;1.75;;
21927;SDS011;11128;51.096;17.190;2023-03-12T13:10:37;3.05;;;1.60;;
21927;SDS011;11128;51.096;17.190;2023-03-12T13:15:40;5.13;;;2.20;;
21927;SDS011;11128;51.096;17.190;2023-03-12T13:20:59;4.10;;;2.25;;
21927;SDS011;11128;51.096;17.190;2023-03-12T13:31:34;4.93;;;1.90;;
21927;SDS011;11128;51.096;17.190;2023-03-12T13:36:36;2.45;;;1.63;;
21927;SDS011;11128;51.096;17.190;2023-03-12T13:41:39;5.40;;;1.70;;
21927;SDS011;11128;51.096;17.190;2023-03-12T13:46:44;2.90;;;1.83;;
21927;SDS011;11128;51.096;17.190;2023-03-12T13:51:52;2.63;;;1.50;;
21927;SDS011;11128;51.096;17.190;2023-03-12T13:57:22;4.15;;;1.90;;
21927;SDS011;11128;51.096;17.190;2023-03-12T14:02:35;9.15;;;2.03;;
21927;SDS011;11128;51.096;17.190;2023-03-12T14:12:51;5.82;;;2.30;;
21927;SDS011;11128;51.096;17.190;2023-03-12T14:17:59;4.15;;;2.03;;
21927;SDS011;11128;51.096;17.190;2023-03-12T14:23:05;4.18;;;2.05;;
21927;SDS011;11128;51.096;17.190;2023-03-12T14:28:16;7.05;;;2.53;;
21927;SDS011;11128;51.096;17.190;2023-03-12T14:33:23;5.15;;;2.50;;
21927;SDS011;11128;51.096;17.190;2023-03-12T14:38:31;5.35;;;2.22;;
21927;SDS011;11128;51.096;17.190;2023-03-12T14:43:36;6.97;;;2.10;;
21927;SDS011;11128;51.096;17.190;2023-03-12T14:48:37;6.22;;;2.75;;
21927;SDS011;11128;51.096;17.190;2023-03-12T14:53:39;6.20;;;3.35;;
21927;SDS011;11128;51.096;17.190;2023-03-12T14:58:45;7.28;;;3.28;;
21927;SDS011;11128;51.096;17.190;2023-03-12T15:03:48;5.68;;;3.38;;
21927;SDS011;11128;51.096;17.190;2023-03-12T15:08:55;11.45;;;3.80;;
21927;SDS011;11128;51.096;17.190;2023-03-12T15:14:01;9.45;;;4.07;;
21927;SDS011;11128;51.096;17.190;2023-03-12T15:19:08;7.45;;;3.60;;
21927;SDS011;11128;51.096;17.190;2023-03-12T15:24:13;5.32;;;3.40;;
21927;SDS011;11128;51.096;17.190;2023-03-12T15:39:37;5.25;;;2.60;;
21927;SDS011;11128;51.096;17.190;2023-03-12T15:44:52;5.97;;;2.60;;
21927;SDS011;11128;51.096;17.190;2023-03-12T15:49:57;4.95;;;2.47;;
21927;SDS011;11128;51.096;17.190;2023-03-12T16:05:14;4.28;;;1.90;;
21927;SDS011;11128;51.096;17.190;2023-03-12T16:10:18;5.93;;;2.45;;
21927;SDS011;11128;51.096;17.190;2023-03-12T16:15:23;4.28;;;2.30;;
21927;SDS011;11128;51.096;17.190;2023-03-12T16:20:29;4.68;;;2.15;;
21927;SDS011;11128;51.096;17.190;2023-03-12T16:25:31;6.28;;;2.97;;
21927;SDS011;11128;51.096;17.190;2023-03-12T16:30:36;6.68;;;2.78;;
21927;SDS011;11128;51.096;17.190;2023-03-12T16:35:37;7.32;;;2.80;;
21927;SDS011;11128;51.096;17.190;2023-03-12T16:40:43;10.27;;;4.03;;
21927;SDS011;11128;51.096;17.190;2023-03-12T16:50:52;7.68;;;3.80;;
21927;SDS011;11128;51.096;17.190;2023-03-12T16:55:59;9.60;;;3.75;;
21927;SDS011;11128;51.096;17.190;2023-03-12T17:01:03;7.72;;;3.20;;
21927;SDS011;11128;51.096;17.190;2023-03-12T17:06:05;8.82;;;3.97;;
21927;SDS011;11128;51.096;17.190;2023-03-12T17:11:19;31.05;;;15.07;;
21927;SDS011;11128;51.096;17.190;2023-03-12T17:16:32;13.43;;;6.90;;
21927;SDS011;11128;51.096;17.190;2023-03-12T17:21:34;54.90;;;22.95;;
21927;SDS011;11128;51.096;17.190;2023-03-12T17:26:37;35.15;;;16.13;;
21927;SDS011;11128;51.096;17.190;2023-03-12T17:31:38;27.33;;;12.68;;
21927;SDS011;11128;51.096;17.190;2023-03-12T17:36:39;37.25;;;15.65;;
21927;SDS011;11128;51.096;17.190;2023-03-12T17:41:41;21.65;;;8.45;;
21927;SDS011;11128;51.096;17.190;2023-03-12T17:46:42;46.05;;;19.38;;
21927;SDS011;11128;51.096;17.190;2023-03-12T17:51:43;33.50;;;15.52;;
21927;SDS011;11128;51.096;17.190;2023-03-12T17:56:45;14.90;;;4.78;;
21927;SDS011;11128;51.096;17.190;2023-03-12T18:01:46;9.32;;;4.65;;
21927;SDS011;11128;51.096;17.190;2023-03-12T18:06:47;9.68;;;4.22;;
21927;SDS011;11128;51.096;17.190;2023-03-12T18:11:49;9.13;;;4.78;;
21927;SDS011;11128;51.096;17.190;2023-03-12T18:16:56;12.23;;;4.63;;
21927;SDS011;11128;51.096;17.190;2023-03-12T18:21:58;10.32;;;4.38;;
21927;SDS011;11128;51.096;17.190;2023-03-12T18:26:59;12.75;;;4.65;;
21927;SDS011;11128;51.096;17.190;2023-03-12T18:32:01;8.93;;;4.18;;
21927;SDS011;11128;51.096;17.190;2023-03-12T18:37:03;10.02;;;3.65;;
21927;SDS011;11128;51.096;17.190;2023-03-12T18:42:05;8.98;;;4.03;;
21927;SDS011;11128;51.096;17.190;2023-03-12T18:47:06;12.43;;;5.65;;
21927;SDS011;11128;51.096;17.190;2023-03-12T18:52:07;16.25;;;6.88;;
21927;SDS011;11128;51.096;17.190;2023-03-12T18:57:09;23.38;;;9.75;;
21927;SDS011;11128;51.096;17.190;2023-03-12T19:02:12;29.40;;;12.45;;
21927;SDS011;11128;51.096;17.190;2023-03-12T19:07:13;28.25;;;12.65;;
21927;SDS011;11128;51.096;17.190;2023-03-12T19:12:14;29.23;;;10.63;;
21927;SDS011;11128;51.096;17.190;2023-03-12T19:17:16;26.35;;;9.75;;
21927;SDS011;11128;51.096;17.190;2023-03-12T19:22:17;25.50;;;11.88;;
21927;SDS011;11128;51.096;17.190;2023-03-12T19:27:19;25.05;;;10.73;;
21927;SDS011;11128;51.096;17.190;2023-03-12T19:32:20;20.02;;;9.68;;
21927;SDS011;11128;51.096;17.190;2023-03-12T19:37:21;25.83;;;13.18;;
21927;SDS011;11128;51.096;17.190;2023-03-12T19:42:23;23.23;;;9.82;;
21927;SDS011;11128;51.096;17.190;2023-03-12T19:47:24;16.60;;;8.07;;
21927;SDS011;11128;51.096;17.190;2023-03-12T19:52:26;18.02;;;8.57;;
21927;SDS011;11128;51.096;17.190;2023-03-12T19:57:27;12.35;;;5.45;;
21927;SDS011;11128;51.096;17.190;2023-03-12T20:02:28;13.25;;;6.10;;
21927;SDS011;11128;51.096;17.190;2023-03-12T20:07:30;14.43;;;5.30;;
21927;SDS011;11128;51.096;17.190;2023-03-12T20:12:31;15.85;;;6.28;;
21927;SDS011;11128;51.096;17.190;2023-03-12T20:17:32;10.93;;;5.03;;
21927;SDS011;11128;51.096;17.190;2023-03-12T20:22:34;13.27;;;5.15;;
21927;SDS011;11128;51.096;17.190;2023-03-12T20:27:38;13.07;;;5.20;;
21927;SDS011;11128;51.096;17.190;2023-03-12T20:32:39;12.43;;;5.13;;
21927;SDS011;11128;51.096;17.190;2023-03-12T20:37:42;9.95;;;4.60;;
21927;SDS011;11128;51.096;17.190;2023-03-12T20:42:43;10.48;;;4.72;;
21927;SDS011;11128;51.096;17.190;2023-03-12T20:47:44;9.30;;;4.80;;
21927;SDS011;11128;51.096;17.190;2023-03-12T20:52:45;8.52;;;4.20;;
21927;SDS011;11128;51.096;17.190;2023-03-12T20:57:47;10.07;;;4.82;;
21927;SDS011;11128;51.096;17.190;2023-03-12T21:02:48;6.28;;;3.85;;
21927;SDS011;11128;51.096;17.190;2023-03-12T21:07:50;9.10;;;3.42;;
21927;SDS011;11128;51.096;17.190;2023-03-12T21:12:52;11.80;;;3.67;;
21927;SDS011;11128;51.096;17.190;2023-03-12T21:17:53;11.60;;;3.65;;
21927;SDS011;11128;51.096;17.190;2023-03-12T21:22:56;7.05;;;3.45;;
21927;SDS011;11128;51.096;17.190;2023-03-12T21:27:57;5.20;;;2.97;;
21927;SDS011;11128;51.096;17.190;2023-03-12T21:32:59;11.15;;;4.18;;
21927;SDS011;11128;51.096;17.190;2023-03-12T21:38:01;10.60;;;4.05;;
21927;SDS011;11128;51.096;17.190;2023-03-12T21:43:02;10.80;;;4.75;;
21927;SDS011;11128;51.096;17.190;2023-03-12T21:48:04;6.75;;;3.85;;
21927;SDS011;11128;51.096;17.190;2023-03-12T21:53:05;11.43;;;5.32;;
21927;SDS011;11128;51.096;17.190;2023-03-12T21:58:07;8.95;;;4.70;;
21927;SDS011;11128;51.096;17.190;2023-03-12T22:03:08;13.27;;;4.78;;
21927;SDS011;11128;51.096;17.190;2023-03-12T22:08:09;11.88;;;5.25;;
21927;SDS011;11128;51.096;17.190;2023-03-12T22:13:10;11.50;;;5.75;;
21927;SDS011;11128;51.096;17.190;2023-03-12T22:18:11;28.35;;;14.18;;
21927;SDS011;11128;51.096;17.190;2023-03-12T22:23:12;14.10;;;7.03;;
21927;SDS011;11128;51.096;17.190;2023-03-12T22:28:14;32.80;;;15.15;;
21927;SDS011;11128;51.096;17.190;2023-03-12T22:33:15;29.13;;;11.73;;
21927;SDS011;11128;51.096;17.190;2023-03-12T22:38:17;25.45;;;11.02;;
21927;SDS011;11128;51.096;17.190;2023-03-12T22:43:18;23.50;;;11.18;;
21927;SDS011;11128;51.096;17.190;2023-03-12T22:48:19;19.02;;;8.73;;
21927;SDS011;11128;51.096;17.190;2023-03-12T22:53:20;16.23;;;7.18;;
21927;SDS011;11128;51.096;17.190;2023-03-12T22:58:22;19.08;;;8.32;;
21927;SDS011;11128;51.096;17.190;2023-03-12T23:03:23;33.58;;;12.68;;
21927;SDS011;11128;51.096;17.190;2023-03-12T23:08:24;10.55;;;5.25;;
21927;SDS011;11128;51.096;17.190;2023-03-12T23:13:27;16.60;;;6.30;;
21927;SDS011;11128;51.096;17.190;2023-03-12T23:18:29;10.07;;;5.03;;
21927;SDS011;11128;51.096;17.190;2023-03-12T23:23:31;13.70;;;6.03;;
21927;SDS011;11128;51.096;17.190;2023-03-12T23:28:33;13.00;;;6.57;;
21927;SDS011;11128;51.096;17.190;2023-03-12T23:33:35;8.02;;;4.93;;
21927;SDS011;11128;51.096;17.190;2023-03-12T23:38:36;9.60;;;4.65;;
21927;SDS011;11128;51.096;17.190;2023-03-12T23:43:38;11.52;;;4.35;;
21927;SDS011;11128;51.096;17.190;2023-03-12T23:48:39;9.70;;;4.45;;
21927;SDS011;11128;51.096;17.190;2023-03-12T23:53:41;8.32;;;4.45;;
21927;SDS011;11128;51.096;17.190;2023-03-12T23:58:45;12.10;;;4.60;;
